This is the latest recevied weather packets stored in our database for station/object SQ6PCH-10. If no packets are shown the sender has not sent any weather packets the latest 10 day(s).
| Time | Temp. | Humidity | Pressure | Rain* | Wind** | Luminosity | Snow |
|---|---|---|---|---|---|---|---|
| 1777382172 | 23.33° C | 9% | 1009.3 hPa | - | - | - | - |
| 1777381571 | 21.11° C | 10% | 1009.3 hPa | - | - | - | - |
| 1777380371 | 24.44° C | 9% | 1009.3 hPa | - | - | - | - |
| 1777379171 | 23.89° C | 10% | 1009.6 hPa | - | - | - | - |
| 1777378570 | 24.44° C | 9% | 1009.7 hPa | - | - | - | - |
| 1777377970 | 23.89° C | 9% | 1009.7 hPa | - | - | - | - |
| 1777376770 | 23.89° C | 10% | 1009.8 hPa | - | - | - | - |
| 1777376170 | 24.44° C | 10% | 1009.9 hPa | - | - | - | - |
| 1777375570 | 22.22° C | 12% | 1009.9 hPa | - | - | - | - |
| 1777373169 | 19.44° C | 15% | 1010.2 hPa | - | - | - | - |
| 1777372569 | 22.22° C | 12% | 1010.2 hPa | - | - | - | - |
| 1777371969 | 23.33° C | 12% | 1010.3 hPa | - | - | - | - |
| 1777371368 | 22.78° C | 12% | 1010.3 hPa | - | - | - | - |
| 1777370768 | 22.78° C | 12% | 1010.3 hPa | - | - | - | - |
| 1777370168 | 20° C | 15% | 1010.5 hPa | - | - | - | - |
| 1777369568 | 19.44° C | 14% | 1010.5 hPa | - | - | - | - |
| 1777368968 | 20° C | 15% | 1010.5 hPa | - | - | - | - |
| 1777368368 | 18.89° C | 15% | 1010.5 hPa | - | - | - | - |
| 1777367767 | 19.44° C | 16% | 1010.5 hPa | - | - | - | - |
| 1777367167 | 17.22° C | 17% | 1010.6 hPa | - | - | - | - |
| 1777366567 | 16.67° C | 16% | 1010.5 hPa | - | - | - | - |
| 1777365967 | 16.11° C | 18% | 1010.4 hPa | - | - | - | - |
| 1777365367 | 16.11° C | 19% | 1010.4 hPa | - | - | - | - |
| 1777364767 | 15° C | 22% | 1010.5 hPa | - | - | - | - |
| 1777364166 | 15° C | 21% | 1010.4 hPa | - | - | - | - |
* Rain since midnight (hover to see other rain measurements)
** Current wind speed in m/s (hover to see current wind gust speed)